sensor_id;sensor_type;location;lat;lon;timestamp;P1;durP1;ratioP1;P2;durP2;ratioP2
62071;SDS011;48031;48.542;13.232;2022-09-09T00:01:34;0.95;;;0.95;;
62071;SDS011;48031;48.542;13.232;2022-09-09T00:04:27;1.10;;;1.00;;
62071;SDS011;48031;48.542;13.232;2022-09-09T00:07:15;1.35;;;1.08;;
62071;SDS011;48031;48.542;13.232;2022-09-09T00:15:23;0.93;;;0.93;;
62071;SDS011;48031;48.542;13.232;2022-09-09T00:18:05;1.83;;;1.30;;
62071;SDS011;48031;48.542;13.232;2022-09-09T00:21:04;2.03;;;1.33;;
62071;SDS011;48031;48.542;13.232;2022-09-09T00:23:35;1.02;;;0.93;;
62071;SDS011;48031;48.542;13.232;2022-09-09T00:29:03;3.22;;;1.40;;
62071;SDS011;48031;48.542;13.232;2022-09-09T00:31:48;1.30;;;1.20;;
62071;SDS011;48031;48.542;13.232;2022-09-09T00:34:19;1.55;;;1.40;;
62071;SDS011;48031;48.542;13.232;2022-09-09T00:36:49;1.50;;;1.40;;
62071;SDS011;48031;48.542;13.232;2022-09-09T00:39:27;1.42;;;1.33;;
62071;SDS011;48031;48.542;13.232;2022-09-09T00:44:33;1.88;;;1.40;;
62071;SDS011;48031;48.542;13.232;2022-09-09T00:55:09;1.90;;;1.40;;
62071;SDS011;48031;48.542;13.232;2022-09-09T00:57:46;1.30;;;1.20;;
62071;SDS011;48031;48.542;13.232;2022-09-09T01:00:19;1.98;;;1.65;;
62071;SDS011;48031;48.542;13.232;2022-09-09T01:03:02;2.08;;;1.40;;
62071;SDS011;48031;48.542;13.232;2022-09-09T01:08:30;1.35;;;1.25;;
62071;SDS011;48031;48.542;13.232;2022-09-09T01:11:05;1.63;;;1.52;;
62071;SDS011;48031;48.542;13.232;2022-09-09T01:13:49;2.50;;;1.98;;
62071;SDS011;48031;48.542;13.232;2022-09-09T01:16:29;2.42;;;2.03;;
62071;SDS011;48031;48.542;13.232;2022-09-09T01:18:58;2.08;;;1.80;;
62071;SDS011;48031;48.542;13.232;2022-09-09T01:27:07;2.20;;;1.85;;
62071;SDS011;48031;48.542;13.232;2022-09-09T01:29:35;2.70;;;2.03;;
62071;SDS011;48031;48.542;13.232;2022-09-09T01:32:37;2.00;;;1.80;;
62071;SDS011;48031;48.542;13.232;2022-09-09T01:35:11;2.90;;;2.00;;
62071;SDS011;48031;48.542;13.232;2022-09-09T01:37:45;2.38;;;1.75;;
62071;SDS011;48031;48.542;13.232;2022-09-09T01:40:13;2.63;;;2.05;;
62071;SDS011;48031;48.542;13.232;2022-09-09T01:42:40;2.65;;;2.13;;
62071;SDS011;48031;48.542;13.232;2022-09-09T01:45:07;2.40;;;2.00;;
62071;SDS011;48031;48.542;13.232;2022-09-09T01:47:35;3.28;;;2.50;;
62071;SDS011;48031;48.542;13.232;2022-09-09T01:50:18;3.58;;;2.58;;
62071;SDS011;48031;48.542;13.232;2022-09-09T01:52:52;2.90;;;1.90;;
62071;SDS011;48031;48.542;13.232;2022-09-09T01:55:29;3.50;;;2.10;;
62071;SDS011;48031;48.542;13.232;2022-09-09T02:01:02;4.13;;;2.22;;
62071;SDS011;48031;48.542;13.232;2022-09-09T02:03:31;2.08;;;1.88;;
62071;SDS011;48031;48.542;13.232;2022-09-09T02:09:02;2.22;;;1.67;;
62071;SDS011;48031;48.542;13.232;2022-09-09T02:11:32;2.47;;;1.90;;
62071;SDS011;48031;48.542;13.232;2022-09-09T02:14:16;2.90;;;2.03;;
62071;SDS011;48031;48.542;13.232;2022-09-09T02:16:51;3.15;;;2.20;;
62071;SDS011;48031;48.542;13.232;2022-09-09T02:20:13;3.28;;;2.13;;
62071;SDS011;48031;48.542;13.232;2022-09-09T02:22:49;2.78;;;2.13;;
62071;SDS011;48031;48.542;13.232;2022-09-09T02:25:19;3.53;;;2.30;;
62071;SDS011;48031;48.542;13.232;2022-09-09T02:27:53;3.00;;;2.28;;
62071;SDS011;48031;48.542;13.232;2022-09-09T02:30:20;5.18;;;2.22;;
62071;SDS011;48031;48.542;13.232;2022-09-09T02:32:53;3.65;;;2.50;;
62071;SDS011;48031;48.542;13.232;2022-09-09T02:35:47;4.47;;;2.85;;
62071;SDS011;48031;48.542;13.232;2022-09-09T02:38:18;2.90;;;2.40;;
62071;SDS011;48031;48.542;13.232;2022-09-09T02:40:57;2.88;;;2.20;;
62071;SDS011;48031;48.542;13.232;2022-09-09T02:43:25;3.42;;;2.42;;
62071;SDS011;48031;48.542;13.232;2022-09-09T02:56:18;2.85;;;1.98;;
62071;SDS011;48031;48.542;13.232;2022-09-09T02:58:48;3.20;;;2.42;;
62071;SDS011;48031;48.542;13.232;2022-09-09T03:01:18;2.75;;;1.95;;
62071;SDS011;48031;48.542;13.232;2022-09-09T03:03:46;3.58;;;2.28;;
62071;SDS011;48031;48.542;13.232;2022-09-09T03:06:15;2.65;;;2.05;;
62071;SDS011;48031;48.542;13.232;2022-09-09T03:08:48;3.08;;;2.00;;
62071;SDS011;48031;48.542;13.232;2022-09-09T03:11:22;2.55;;;1.88;;
62071;SDS011;48031;48.542;13.232;2022-09-09T03:13:50;2.25;;;1.88;;
62071;SDS011;48031;48.542;13.232;2022-09-09T03:16:19;2.75;;;1.98;;
62071;SDS011;48031;48.542;13.232;2022-09-09T03:18:50;2.47;;;1.80;;
62071;SDS011;48031;48.542;13.232;2022-09-09T03:21:19;2.00;;;1.80;;
62071;SDS011;48031;48.542;13.232;2022-09-09T03:23:47;3.10;;;1.95;;
62071;SDS011;48031;48.542;13.232;2022-09-09T03:26:15;2.45;;;1.90;;
62071;SDS011;48031;48.542;13.232;2022-09-09T03:28:45;2.22;;;1.92;;
62071;SDS011;48031;48.542;13.232;2022-09-09T03:31:16;3.05;;;2.08;;
62071;SDS011;48031;48.542;13.232;2022-09-09T03:33:43;2.00;;;1.58;;
62071;SDS011;48031;48.542;13.232;2022-09-09T03:36:14;2.35;;;2.00;;
62071;SDS011;48031;48.542;13.232;2022-09-09T03:38:42;2.55;;;1.90;;
62071;SDS011;48031;48.542;13.232;2022-09-09T03:41:09;2.38;;;1.85;;
62071;SDS011;48031;48.542;13.232;2022-09-09T03:43:37;3.08;;;2.10;;
62071;SDS011;48031;48.542;13.232;2022-09-09T03:46:05;2.28;;;1.67;;
62071;SDS011;48031;48.542;13.232;2022-09-09T03:48:32;2.60;;;1.83;;
62071;SDS011;48031;48.542;13.232;2022-09-09T03:51:00;2.83;;;1.90;;
62071;SDS011;48031;48.542;13.232;2022-09-09T03:53:30;1.60;;;1.50;;
62071;SDS011;48031;48.542;13.232;2022-09-09T03:55:57;1.65;;;1.55;;
62071;SDS011;48031;48.542;13.232;2022-09-09T03:58:28;2.08;;;1.55;;
62071;SDS011;48031;48.542;13.232;2022-09-09T04:01:05;1.85;;;1.50;;
62071;SDS011;48031;48.542;13.232;2022-09-09T04:03:36;1.70;;;1.52;;
62071;SDS011;48031;48.542;13.232;2022-09-09T04:06:04;2.13;;;1.63;;
62071;SDS011;48031;48.542;13.232;2022-09-09T04:08:33;2.10;;;1.55;;
62071;SDS011;48031;48.542;13.232;2022-09-09T04:11:02;1.63;;;1.52;;
62071;SDS011;48031;48.542;13.232;2022-09-09T04:13:34;1.73;;;1.63;;
62071;SDS011;48031;48.542;13.232;2022-09-09T04:16:10;1.55;;;1.40;;
62071;SDS011;48031;48.542;13.232;2022-09-09T04:18:41;1.63;;;1.35;;
62071;SDS011;48031;48.542;13.232;2022-09-09T04:21:09;1.50;;;1.40;;
62071;SDS011;48031;48.542;13.232;2022-09-09T04:23:39;1.40;;;1.30;;
62071;SDS011;48031;48.542;13.232;2022-09-09T04:26:07;2.00;;;1.42;;
62071;SDS011;48031;48.542;13.232;2022-09-09T04:28:36;2.05;;;1.67;;
62071;SDS011;48031;48.542;13.232;2022-09-09T04:31:16;2.50;;;1.70;;
62071;SDS011;48031;48.542;13.232;2022-09-09T04:33:48;1.80;;;1.60;;
62071;SDS011;48031;48.542;13.232;2022-09-09T04:36:17;2.95;;;1.40;;
62071;SDS011;48031;48.542;13.232;2022-09-09T04:38:49;1.60;;;1.30;;
62071;SDS011;48031;48.542;13.232;2022-09-09T04:41:17;1.50;;;1.40;;
62071;SDS011;48031;48.542;13.232;2022-09-09T04:43:48;1.45;;;1.35;;
62071;SDS011;48031;48.542;13.232;2022-09-09T04:46:16;1.92;;;1.45;;
62071;SDS011;48031;48.542;13.232;2022-09-09T04:48:45;1.50;;;1.40;;
62071;SDS011;48031;48.542;13.232;2022-09-09T04:51:13;1.88;;;1.67;;
62071;SDS011;48031;48.542;13.232;2022-09-09T04:53:43;1.63;;;1.50;;
62071;SDS011;48031;48.542;13.232;2022-09-09T04:56:12;1.58;;;1.48;;
62071;SDS011;48031;48.542;13.232;2022-09-09T04:58:52;1.67;;;1.58;;
62071;SDS011;48031;48.542;13.232;2022-09-09T05:01:22;1.40;;;1.23;;
62071;SDS011;48031;48.542;13.232;2022-09-09T05:03:55;1.45;;;1.35;;
62071;SDS011;48031;48.542;13.232;2022-09-09T05:06:23;2.83;;;1.15;;
62071;SDS011;48031;48.542;13.232;2022-09-09T05:08:54;1.58;;;1.33;;
62071;SDS011;48031;48.542;13.232;2022-09-09T05:11:29;1.38;;;1.27;;
62071;SDS011;48031;48.542;13.232;2022-09-09T05:14:14;1.40;;;1.30;;
62071;SDS011;48031;48.542;13.232;2022-09-09T05:16:41;1.65;;;1.55;;
62071;SDS011;48031;48.542;13.232;2022-09-09T05:19:11;2.25;;;1.58;;
62071;SDS011;48031;48.542;13.232;2022-09-09T05:21:46;2.60;;;1.70;;
62071;SDS011;48031;48.542;13.232;2022-09-09T05:24:17;2.20;;;1.95;;
62071;SDS011;48031;48.542;13.232;2022-09-09T05:26:46;2.92;;;1.88;;
62071;SDS011;48031;48.542;13.232;2022-09-09T05:29:13;1.90;;;1.60;;
62071;SDS011;48031;48.542;13.232;2022-09-09T05:31:40;3.85;;;1.85;;
62071;SDS011;48031;48.542;13.232;2022-09-09T05:34:11;2.47;;;2.00;;
62071;SDS011;48031;48.542;13.232;2022-09-09T05:36:39;2.17;;;1.77;;
62071;SDS011;48031;48.542;13.232;2022-09-09T05:39:06;2.53;;;1.75;;
62071;SDS011;48031;48.542;13.232;2022-09-09T05:41:33;2.10;;;1.60;;
62071;SDS011;48031;48.542;13.232;2022-09-09T05:44:03;1.70;;;1.42;;
62071;SDS011;48031;48.542;13.232;2022-09-09T05:46:34;1.92;;;1.70;;
62071;SDS011;48031;48.542;13.232;2022-09-09T05:49:02;1.90;;;1.58;;
62071;SDS011;48031;48.542;13.232;2022-09-09T05:51:31;2.00;;;1.50;;
62071;SDS011;48031;48.542;13.232;2022-09-09T05:54:04;2.00;;;1.77;;
62071;SDS011;48031;48.542;13.232;2022-09-09T05:56:35;1.63;;;1.52;;
62071;SDS011;48031;48.542;13.232;2022-09-09T05:59:02;1.70;;;1.60;;
62071;SDS011;48031;48.542;13.232;2022-09-09T06:01:31;1.60;;;1.42;;
62071;SDS011;48031;48.542;13.232;2022-09-09T06:04:01;2.20;;;1.90;;
62071;SDS011;48031;48.542;13.232;2022-09-09T06:06:33;2.10;;;1.70;;
62071;SDS011;48031;48.542;13.232;2022-09-09T06:09:06;2.63;;;1.90;;
62071;SDS011;48031;48.542;13.232;2022-09-09T06:11:38;2.00;;;1.73;;
62071;SDS011;48031;48.542;13.232;2022-09-09T06:14:06;1.92;;;1.67;;
62071;SDS011;48031;48.542;13.232;2022-09-09T06:16:34;1.73;;;1.60;;
62071;SDS011;48031;48.542;13.232;2022-09-09T06:19:09;2.38;;;2.00;;
62071;SDS011;48031;48.542;13.232;2022-09-09T06:21:39;2.60;;;1.98;;
62071;SDS011;48031;48.542;13.232;2022-09-09T06:24:08;2.10;;;1.80;;
62071;SDS011;48031;48.542;13.232;2022-09-09T06:26:36;2.95;;;2.30;;
62071;SDS011;48031;48.542;13.232;2022-09-09T06:29:09;2.17;;;1.97;;
62071;SDS011;48031;48.542;13.232;2022-09-09T06:31:36;2.00;;;1.60;;
62071;SDS011;48031;48.542;13.232;2022-09-09T06:34:10;1.90;;;1.70;;
62071;SDS011;48031;48.542;13.232;2022-09-09T06:36:40;2.38;;;1.90;;
62071;SDS011;48031;48.542;13.232;2022-09-09T06:39:07;2.72;;;2.00;;
62071;SDS011;48031;48.542;13.232;2022-09-09T06:41:40;2.53;;;1.77;;
62071;SDS011;48031;48.542;13.232;2022-09-09T06:44:29;2.40;;;2.10;;
62071;SDS011;48031;48.542;13.232;2022-09-09T06:47:02;2.85;;;2.15;;
62071;SDS011;48031;48.542;13.232;2022-09-09T06:49:30;3.08;;;2.33;;
62071;SDS011;48031;48.542;13.232;2022-09-09T06:51:57;3.53;;;2.60;;
62071;SDS011;48031;48.542;13.232;2022-09-09T06:54:25;2.60;;;2.20;;
62071;SDS011;48031;48.542;13.232;2022-09-09T06:56:52;3.15;;;2.30;;
62071;SDS011;48031;48.542;13.232;2022-09-09T06:59:22;2.45;;;1.92;;
62071;SDS011;48031;48.542;13.232;2022-09-09T07:01:52;2.70;;;2.17;;
62071;SDS011;48031;48.542;13.232;2022-09-09T07:04:22;4.25;;;3.00;;
62071;SDS011;48031;48.542;13.232;2022-09-09T07:06:50;3.70;;;2.85;;
62071;SDS011;48031;48.542;13.232;2022-09-09T07:09:23;2.30;;;1.98;;
62071;SDS011;48031;48.542;13.232;2022-09-09T07:11:52;3.10;;;2.28;;
62071;SDS011;48031;48.542;13.232;2022-09-09T07:14:21;3.15;;;2.40;;
62071;SDS011;48031;48.542;13.232;2022-09-09T07:16:58;2.90;;;1.95;;
62071;SDS011;48031;48.542;13.232;2022-09-09T07:19:31;2.30;;;2.00;;
62071;SDS011;48031;48.542;13.232;2022-09-09T07:21:58;2.25;;;2.05;;
62071;SDS011;48031;48.542;13.232;2022-09-09T07:24:26;2.50;;;2.10;;
62071;SDS011;48031;48.542;13.232;2022-09-09T07:26:57;2.20;;;2.00;;
62071;SDS011;48031;48.542;13.232;2022-09-09T07:29:25;3.03;;;2.60;;
62071;SDS011;48031;48.542;13.232;2022-09-09T07:31:52;2.83;;;2.53;;
62071;SDS011;48031;48.542;13.232;2022-09-09T07:34:24;3.65;;;2.60;;
62071;SDS011;48031;48.542;13.232;2022-09-09T07:36:52;2.38;;;1.90;;
62071;SDS011;48031;48.542;13.232;2022-09-09T07:39:19;2.30;;;2.10;;
62071;SDS011;48031;48.542;13.232;2022-09-09T07:41:50;2.92;;;2.30;;
62071;SDS011;48031;48.542;13.232;2022-09-09T07:44:22;2.83;;;2.10;;
62071;SDS011;48031;48.542;13.232;2022-09-09T07:47:01;3.13;;;2.03;;
62071;SDS011;48031;48.542;13.232;2022-09-09T07:49:35;2.92;;;2.10;;
62071;SDS011;48031;48.542;13.232;2022-09-09T07:52:03;2.35;;;2.00;;
62071;SDS011;48031;48.542;13.232;2022-09-09T07:54:31;2.72;;;2.10;;
62071;SDS011;48031;48.542;13.232;2022-09-09T07:57:01;2.80;;;2.50;;
62071;SDS011;48031;48.542;13.232;2022-09-09T07:59:33;3.28;;;2.20;;
62071;SDS011;48031;48.542;13.232;2022-09-09T08:02:01;3.75;;;2.33;;
62071;SDS011;48031;48.542;13.232;2022-09-09T08:04:31;2.03;;;1.70;;
62071;SDS011;48031;48.542;13.232;2022-09-09T08:06:59;2.15;;;1.90;;
62071;SDS011;48031;48.542;13.232;2022-09-09T08:09:34;2.28;;;1.80;;
62071;SDS011;48031;48.542;13.232;2022-09-09T08:12:22;2.33;;;1.90;;
62071;SDS011;48031;48.542;13.232;2022-09-09T08:14:50;2.00;;;1.80;;
62071;SDS011;48031;48.542;13.232;2022-09-09T08:17:21;1.90;;;1.80;;
62071;SDS011;48031;48.542;13.232;2022-09-09T08:19:48;1.80;;;1.60;;
62071;SDS011;48031;48.542;13.232;2022-09-09T08:22:20;1.90;;;1.55;;
62071;SDS011;48031;48.542;13.232;2022-09-09T08:24:49;1.95;;;1.85;;
62071;SDS011;48031;48.542;13.232;2022-09-09T08:27:16;2.83;;;1.67;;
62071;SDS011;48031;48.542;13.232;2022-09-09T08:29:43;2.92;;;1.80;;
62071;SDS011;48031;48.542;13.232;2022-09-09T08:32:11;2.00;;;1.70;;
62071;SDS011;48031;48.542;13.232;2022-09-09T08:34:39;1.52;;;1.40;;
62071;SDS011;48031;48.542;13.232;2022-09-09T08:37:16;1.60;;;1.50;;
62071;SDS011;48031;48.542;13.232;2022-09-09T08:39:43;1.50;;;1.40;;
62071;SDS011;48031;48.542;13.232;2022-09-09T08:45:09;2.45;;;1.80;;
62071;SDS011;48031;48.542;13.232;2022-09-09T08:50:26;2.88;;;1.90;;
62071;SDS011;48031;48.542;13.232;2022-09-09T08:58:19;1.73;;;1.60;;
62071;SDS011;48031;48.542;13.232;2022-09-09T09:06:31;1.58;;;1.42;;
62071;SDS011;48031;48.542;13.232;2022-09-09T09:09:35;2.50;;;1.60;;
62071;SDS011;48031;48.542;13.232;2022-09-09T09:12:27;1.20;;;1.10;;
62071;SDS011;48031;48.542;13.232;2022-09-09T09:14:59;1.73;;;1.40;;
62071;SDS011;48031;48.542;13.232;2022-09-09T09:17:27;1.50;;;1.38;;
62071;SDS011;48031;48.542;13.232;2022-09-09T09:19:58;2.92;;;1.52;;
62071;SDS011;48031;48.542;13.232;2022-09-09T09:22:29;1.77;;;1.55;;
62071;SDS011;48031;48.542;13.232;2022-09-09T09:25:19;1.48;;;1.35;;
62071;SDS011;48031;48.542;13.232;2022-09-09T09:30:29;1.40;;;1.30;;
62071;SDS011;48031;48.542;13.232;2022-09-09T09:35:48;1.42;;;1.33;;
62071;SDS011;48031;48.542;13.232;2022-09-09T09:38:19;1.75;;;1.23;;
62071;SDS011;48031;48.542;13.232;2022-09-09T09:41:09;1.30;;;1.20;;
62071;SDS011;48031;48.542;13.232;2022-09-09T09:43:37;1.60;;;1.40;;
62071;SDS011;48031;48.542;13.232;2022-09-09T09:46:20;2.15;;;1.58;;
62071;SDS011;48031;48.542;13.232;2022-09-09T09:49:08;1.48;;;1.38;;
62071;SDS011;48031;48.542;13.232;2022-09-09T09:51:37;1.77;;;1.50;;
62071;SDS011;48031;48.542;13.232;2022-09-09T09:54:13;2.17;;;1.65;;
62071;SDS011;48031;48.542;13.232;2022-09-09T09:56:46;4.78;;;2.50;;
62071;SDS011;48031;48.542;13.232;2022-09-09T10:02:31;1.60;;;1.40;;
62071;SDS011;48031;48.542;13.232;2022-09-09T10:07:46;1.60;;;1.38;;
62071;SDS011;48031;48.542;13.232;2022-09-09T10:10:27;1.77;;;1.50;;
62071;SDS011;48031;48.542;13.232;2022-09-09T10:13:29;1.85;;;1.50;;
62071;SDS011;48031;48.542;13.232;2022-09-09T10:34:38;1.98;;;1.60;;
62071;SDS011;48031;48.542;13.232;2022-09-09T10:38:05;1.55;;;1.30;;
62071;SDS011;48031;48.542;13.232;2022-09-09T10:40:31;2.33;;;1.80;;
62071;SDS011;48031;48.542;13.232;2022-09-09T10:43:22;1.95;;;1.70;;
62071;SDS011;48031;48.542;13.232;2022-09-09T10:46:20;2.00;;;1.60;;
62071;SDS011;48031;48.542;13.232;2022-09-09T10:59:41;1.48;;;1.30;;
62071;SDS011;48031;48.542;13.232;2022-09-09T11:02:18;1.58;;;1.40;;
62071;SDS011;48031;48.542;13.232;2022-09-09T11:05:04;1.85;;;1.50;;
62071;SDS011;48031;48.542;13.232;2022-09-09T11:07:41;1.50;;;1.40;;
62071;SDS011;48031;48.542;13.232;2022-09-09T11:10:17;1.45;;;1.35;;
62071;SDS011;48031;48.542;13.232;2022-09-09T11:13:17;1.92;;;1.65;;
62071;SDS011;48031;48.542;13.232;2022-09-09T11:15:58;1.77;;;1.40;;
62071;SDS011;48031;48.542;13.232;2022-09-09T11:18:47;1.92;;;1.38;;
62071;SDS011;48031;48.542;13.232;2022-09-09T11:21:28;1.50;;;1.40;;
62071;SDS011;48031;48.542;13.232;2022-09-09T11:24:04;1.60;;;1.50;;
62071;SDS011;48031;48.542;13.232;2022-09-09T11:29:33;1.50;;;1.30;;
62071;SDS011;48031;48.542;13.232;2022-09-09T11:40:28;1.30;;;1.20;;
62071;SDS011;48031;48.542;13.232;2022-09-09T11:43:05;1.30;;;1.20;;
62071;SDS011;48031;48.542;13.232;2022-09-09T11:45:41;1.50;;;1.40;;
62071;SDS011;48031;48.542;13.232;2022-09-09T11:53:58;2.10;;;1.52;;
62071;SDS011;48031;48.542;13.232;2022-09-09T11:56:49;1.95;;;1.52;;
62071;SDS011;48031;48.542;13.232;2022-09-09T11:59:20;1.80;;;1.27;;
62071;SDS011;48031;48.542;13.232;2022-09-09T12:02:01;1.38;;;1.25;;
62071;SDS011;48031;48.542;13.232;2022-09-09T12:05:38;129.02;;;7.90;;
62071;SDS011;48031;48.542;13.232;2022-09-09T12:08:11;6.22;;;4.28;;
62071;SDS011;48031;48.542;13.232;2022-09-09T12:10:57;7.22;;;4.95;;
62071;SDS011;48031;48.542;13.232;2022-09-09T12:17:42;4.07;;;3.22;;
62071;SDS011;48031;48.542;13.232;2022-09-09T12:25:26;5.78;;;3.30;;
62071;SDS011;48031;48.542;13.232;2022-09-09T12:28:19;7.35;;;3.42;;
62071;SDS011;48031;48.542;13.232;2022-09-09T12:31:08;5.97;;;4.30;;
62071;SDS011;48031;48.542;13.232;2022-09-09T12:33:45;7.50;;;5.00;;
62071;SDS011;48031;48.542;13.232;2022-09-09T12:36:17;7.13;;;4.55;;
62071;SDS011;48031;48.542;13.232;2022-09-09T12:38:51;7.43;;;4.18;;
62071;SDS011;48031;48.542;13.232;2022-09-09T12:41:19;5.75;;;4.10;;
62071;SDS011;48031;48.542;13.232;2022-09-09T12:43:51;4.93;;;3.35;;
62071;SDS011;48031;48.542;13.232;2022-09-09T12:46:43;6.38;;;4.70;;
62071;SDS011;48031;48.542;13.232;2022-09-09T12:49:29;5.53;;;3.67;;
62071;SDS011;48031;48.542;13.232;2022-09-09T12:52:03;5.18;;;3.00;;
62071;SDS011;48031;48.542;13.232;2022-09-09T12:54:34;4.60;;;3.63;;
62071;SDS011;48031;48.542;13.232;2022-09-09T12:57:03;7.38;;;3.50;;
62071;SDS011;48031;48.542;13.232;2022-09-09T12:59:38;6.45;;;4.00;;
62071;SDS011;48031;48.542;13.232;2022-09-09T13:02:16;4.68;;;3.80;;
62071;SDS011;48031;48.542;13.232;2022-09-09T13:04:46;3.50;;;2.90;;
62071;SDS011;48031;48.542;13.232;2022-09-09T13:07:13;3.83;;;2.90;;
62071;SDS011;48031;48.542;13.232;2022-09-09T13:09:43;7.22;;;3.50;;
62071;SDS011;48031;48.542;13.232;2022-09-09T13:12:13;4.32;;;3.35;;
62071;SDS011;48031;48.542;13.232;2022-09-09T13:14:52;4.00;;;2.47;;
62071;SDS011;48031;48.542;13.232;2022-09-09T13:17:24;3.38;;;2.80;;
62071;SDS011;48031;48.542;13.232;2022-09-09T13:19:55;3.78;;;2.90;;
62071;SDS011;48031;48.542;13.232;2022-09-09T13:27:38;3.72;;;3.30;;
62071;SDS011;48031;48.542;13.232;2022-09-09T13:33:34;3.72;;;2.97;;
62071;SDS011;48031;48.542;13.232;2022-09-09T13:36:07;4.82;;;3.30;;
62071;SDS011;48031;48.542;13.232;2022-09-09T13:38:37;5.05;;;3.75;;
62071;SDS011;48031;48.542;13.232;2022-09-09T13:41:08;4.50;;;2.72;;
62071;SDS011;48031;48.542;13.232;2022-09-09T13:43:37;4.45;;;2.80;;
62071;SDS011;48031;48.542;13.232;2022-09-09T13:46:24;5.63;;;2.90;;
62071;SDS011;48031;48.542;13.232;2022-09-09T13:48:59;3.78;;;2.75;;
62071;SDS011;48031;48.542;13.232;2022-09-09T13:51:29;3.45;;;2.58;;
62071;SDS011;48031;48.542;13.232;2022-09-09T13:54:00;3.22;;;2.40;;
62071;SDS011;48031;48.542;13.232;2022-09-09T13:56:27;5.47;;;3.28;;
62071;SDS011;48031;48.542;13.232;2022-09-09T13:58:55;5.03;;;4.22;;
62071;SDS011;48031;48.542;13.232;2022-09-09T14:01:24;5.05;;;3.83;;
62071;SDS011;48031;48.542;13.232;2022-09-09T14:03:55;3.92;;;3.33;;
62071;SDS011;48031;48.542;13.232;2022-09-09T14:06:22;5.90;;;4.47;;
62071;SDS011;48031;48.542;13.232;2022-09-09T14:08:50;4.63;;;3.63;;
62071;SDS011;48031;48.542;13.232;2022-09-09T14:11:18;5.57;;;4.03;;
62071;SDS011;48031;48.542;13.232;2022-09-09T14:13:45;9.13;;;5.10;;
62071;SDS011;48031;48.542;13.232;2022-09-09T14:16:13;4.43;;;3.58;;
62071;SDS011;48031;48.542;13.232;2022-09-09T14:18:40;5.25;;;4.13;;
62071;SDS011;48031;48.542;13.232;2022-09-09T14:21:07;5.35;;;3.30;;
62071;SDS011;48031;48.542;13.232;2022-09-09T14:23:35;3.88;;;3.30;;
62071;SDS011;48031;48.542;13.232;2022-09-09T14:26:02;5.75;;;4.40;;
62071;SDS011;48031;48.542;13.232;2022-09-09T14:28:30;5.93;;;3.30;;
62071;SDS011;48031;48.542;13.232;2022-09-09T14:31:17;3.75;;;2.95;;
62071;SDS011;48031;48.542;13.232;2022-09-09T14:33:45;3.80;;;3.40;;
62071;SDS011;48031;48.542;13.232;2022-09-09T14:36:12;4.32;;;3.15;;
62071;SDS011;48031;48.542;13.232;2022-09-09T14:38:39;3.35;;;2.90;;
62071;SDS011;48031;48.542;13.232;2022-09-09T14:41:06;4.75;;;4.22;;
62071;SDS011;48031;48.542;13.232;2022-09-09T14:43:38;3.40;;;3.10;;
62071;SDS011;48031;48.542;13.232;2022-09-09T14:46:10;2.63;;;2.42;;
62071;SDS011;48031;48.542;13.232;2022-09-09T14:48:38;4.88;;;2.47;;
62071;SDS011;48031;48.542;13.232;2022-09-09T14:51:10;2.42;;;2.22;;
62071;SDS011;48031;48.542;13.232;2022-09-09T14:53:39;2.80;;;2.33;;
62071;SDS011;48031;48.542;13.232;2022-09-09T14:56:26;3.63;;;2.88;;
62071;SDS011;48031;48.542;13.232;2022-09-09T14:58:56;3.08;;;2.58;;
62071;SDS011;48031;48.542;13.232;2022-09-09T15:01:25;2.97;;;2.28;;
62071;SDS011;48031;48.542;13.232;2022-09-09T15:03:56;3.45;;;2.50;;
62071;SDS011;48031;48.542;13.232;2022-09-09T15:06:30;3.17;;;1.85;;
62071;SDS011;48031;48.542;13.232;2022-09-09T15:08:59;2.05;;;1.90;;
62071;SDS011;48031;48.542;13.232;2022-09-09T15:11:28;2.92;;;2.58;;
62071;SDS011;48031;48.542;13.232;2022-09-09T15:13:57;2.60;;;2.40;;
62071;SDS011;48031;48.542;13.232;2022-09-09T15:16:26;2.40;;;2.20;;
62071;SDS011;48031;48.542;13.232;2022-09-09T15:18:55;2.67;;;1.98;;
62071;SDS011;48031;48.542;13.232;2022-09-09T15:21:24;2.20;;;1.77;;
62071;SDS011;48031;48.542;13.232;2022-09-09T15:23:54;2.30;;;2.05;;
62071;SDS011;48031;48.542;13.232;2022-09-09T15:26:22;4.25;;;2.90;;
62071;SDS011;48031;48.542;13.232;2022-09-09T15:28:50;2.65;;;2.22;;
62071;SDS011;48031;48.542;13.232;2022-09-09T15:31:21;3.78;;;2.83;;
62071;SDS011;48031;48.542;13.232;2022-09-09T15:33:55;2.17;;;1.90;;
62071;SDS011;48031;48.542;13.232;2022-09-09T15:36:28;6.38;;;3.70;;
62071;SDS011;48031;48.542;13.232;2022-09-09T15:38:59;2.88;;;2.47;;
62071;SDS011;48031;48.542;13.232;2022-09-09T15:41:29;2.40;;;2.20;;
62071;SDS011;48031;48.542;13.232;2022-09-09T15:43:59;2.85;;;1.67;;
62071;SDS011;48031;48.542;13.232;2022-09-09T15:46:34;2.25;;;1.80;;
62071;SDS011;48031;48.542;13.232;2022-09-09T15:49:08;1.50;;;1.30;;
62071;SDS011;48031;48.542;13.232;2022-09-09T15:51:40;1.90;;;1.50;;
62071;SDS011;48031;48.542;13.232;2022-09-09T15:54:11;1.50;;;1.27;;
62071;SDS011;48031;48.542;13.232;2022-09-09T15:56:40;1.40;;;1.30;;
62071;SDS011;48031;48.542;13.232;2022-09-09T15:59:08;1.48;;;1.38;;
62071;SDS011;48031;48.542;13.232;2022-09-09T16:01:35;2.33;;;1.40;;
62071;SDS011;48031;48.542;13.232;2022-09-09T16:04:03;1.20;;;1.10;;
62071;SDS011;48031;48.542;13.232;2022-09-09T16:06:30;3.50;;;2.10;;
62071;SDS011;48031;48.542;13.232;2022-09-09T16:08:58;1.20;;;1.10;;
62071;SDS011;48031;48.542;13.232;2022-09-09T16:11:28;2.53;;;0.90;;
62071;SDS011;48031;48.542;13.232;2022-09-09T16:13:57;0.80;;;0.80;;
62071;SDS011;48031;48.542;13.232;2022-09-09T16:16:26;1.58;;;1.00;;
62071;SDS011;48031;48.542;13.232;2022-09-09T16:18:58;1.00;;;0.90;;
62071;SDS011;48031;48.542;13.232;2022-09-09T16:21:29;3.33;;;1.77;;
62071;SDS011;48031;48.542;13.232;2022-09-09T16:23:59;1.75;;;1.02;;
62071;SDS011;48031;48.542;13.232;2022-09-09T16:26:29;0.98;;;0.88;;
62071;SDS011;48031;48.542;13.232;2022-09-09T16:28:58;2.67;;;1.70;;
62071;SDS011;48031;48.542;13.232;2022-09-09T16:31:26;1.30;;;1.10;;
62071;SDS011;48031;48.542;13.232;2022-09-09T16:33:54;1.20;;;1.10;;
62071;SDS011;48031;48.542;13.232;2022-09-09T16:36:23;1.00;;;0.90;;
62071;SDS011;48031;48.542;13.232;2022-09-09T16:38:54;1.75;;;1.23;;
62071;SDS011;48031;48.542;13.232;2022-09-09T16:41:24;3.70;;;1.42;;
62071;SDS011;48031;48.542;13.232;2022-09-09T16:43:53;1.38;;;1.27;;
62071;SDS011;48031;48.542;13.232;2022-09-09T16:46:22;1.58;;;1.13;;
62071;SDS011;48031;48.542;13.232;2022-09-09T16:48:51;0.93;;;0.90;;
62071;SDS011;48031;48.542;13.232;2022-09-09T16:51:22;3.15;;;1.40;;
62071;SDS011;48031;48.542;13.232;2022-09-09T16:53:58;2.00;;;1.35;;
62071;SDS011;48031;48.542;13.232;2022-09-09T16:56:27;1.65;;;1.00;;
62071;SDS011;48031;48.542;13.232;2022-09-09T16:58:55;1.35;;;0.90;;
62071;SDS011;48031;48.542;13.232;2022-09-09T17:01:25;1.08;;;1.00;;
62071;SDS011;48031;48.542;13.232;2022-09-09T17:03:57;1.25;;;0.90;;
62071;SDS011;48031;48.542;13.232;2022-09-09T17:06:28;1.15;;;0.93;;
62071;SDS011;48031;48.542;13.232;2022-09-09T17:08:56;1.60;;;1.15;;
62071;SDS011;48031;48.542;13.232;2022-09-09T17:11:24;1.13;;;1.02;;
62071;SDS011;48031;48.542;13.232;2022-09-09T17:13:52;1.50;;;1.40;;
62071;SDS011;48031;48.542;13.232;2022-09-09T17:16:20;1.63;;;1.10;;
62071;SDS011;48031;48.542;13.232;2022-09-09T17:18:51;0.80;;;0.80;;
62071;SDS011;48031;48.542;13.232;2022-09-09T17:21:19;3.30;;;1.60;;
62071;SDS011;48031;48.542;13.232;2022-09-09T17:23:48;2.78;;;1.80;;